Time;durP1;ratioP1;P1;durP2;ratioP2;P2;SDS_P1;SDS_P2;PMS_P1;PMS_P2;Temp;Humidity;BMP_temperature;BMP_pressure;BME280_temperature;BME280_humidity;BME280_pressure;Samples;Min_cycle;Max_cycle;Signal;HPM_P1;HPM_P2
2022/09/14 00:00:54;;;;;;;1.35;1.23;;;12.90;99.90;;;;;;5005729;28;20627;-78
2022/09/14 00:03:20;;;;;;;1.27;0.70;;;12.80;99.90;;;;;;4998158;28;20105;-79
2022/09/14 00:05:45;;;;;;;5.13;1.08;;;12.80;99.90;;;;;;4997587;28;20098;-79
2022/09/14 00:08:12;;;;;;;0.85;0.52;;;12.80;99.90;;;;;;5004451;28;20108;-78
2022/09/14 00:10:42;;;;;;;1.10;1.00;;;12.80;99.90;;;;;;5001529;28;20054;-78
2022/09/14 00:13:09;;;;;;;1.23;0.70;;;12.90;99.90;;;;;;5004561;28;20026;-78
2022/09/14 00:15:36;;;;;;;0.75;0.75;;;12.80;99.90;;;;;;5006087;28;20026;-79
2022/09/14 00:18:03;;;;;;;0.63;0.63;;;12.80;99.90;;;;;;5005684;28;20050;-79
2022/09/14 00:20:29;;;;;;;1.27;1.00;;;12.80;99.90;;;;;;5004101;28;20018;-79
2022/09/14 00:22:55;;;;;;;1.58;0.80;;;12.80;99.90;;;;;;5001810;28;20065;-78
2022/09/14 00:25:20;;;;;;;2.20;1.58;;;12.70;99.90;;;;;;5006943;28;20497;-79
2022/09/14 00:27:46;;;;;;;1.55;0.77;;;12.60;99.90;;;;;;5002106;28;20389;-78
2022/09/14 00:30:12;;;;;;;1.95;0.82;;;12.70;99.90;;;;;;5005790;28;20022;-78
2022/09/14 00:32:37;;;;;;;0.73;0.73;;;12.70;99.90;;;;;;4996481;28;20030;-79
2022/09/14 00:35:03;;;;;;;1.42;1.33;;;12.60;99.90;;;;;;5000666;28;20037;-79
2022/09/14 00:37:32;;;;;;;0.98;0.80;;;12.60;99.90;;;;;;5003745;28;20046;-78
2022/09/14 00:39:57;;;;;;;2.03;0.70;;;12.60;99.90;;;;;;4996508;28;20029;-79
2022/09/14 00:42:25;;;;;;;0.80;0.80;;;12.60;99.90;;;;;;4998631;28;20533;-79
2022/09/14 00:44:51;;;;;;;2.35;1.33;;;12.60;99.90;;;;;;5000869;28;20393;-79
2022/09/14 00:47:17;;;;;;;0.50;0.50;;;12.60;99.90;;;;;;5004172;28;20033;-79
2022/09/14 00:49:44;;;;;;;1.23;0.77;;;12.50;99.90;;;;;;5004330;28;20080;-79
2022/09/14 00:52:11;;;;;;;10.35;1.10;;;12.50;99.90;;;;;;4994003;28;20057;-79
2022/09/14 00:54:40;;;;;;;3.40;1.05;;;12.70;99.90;;;;;;4998086;28;20035;-79
2022/09/14 00:57:06;;;;;;;6.53;1.33;;;12.70;99.90;;;;;;5000351;28;20022;-79
2022/09/14 00:59:37;;;;;;;1.75;1.10;;;12.70;99.90;;;;;;5008631;28;20026;-79
2022/09/14 01:02:03;;;;;;;0.70;0.70;;;12.50;99.90;;;;;;5003447;28;20033;-79
2022/09/14 01:04:30;;;;;;;0.60;0.57;;;12.50;99.90;;;;;;5005461;28;20065;-79
2022/09/14 01:07:17;;;;;;;1.15;0.70;;;12.50;99.90;;;;;;5009458;28;20034;-79
2022/09/14 01:10:10;;;;;;;3.03;1.25;;;12.30;99.90;;;;;;5007551;28;20068;-78
2022/09/14 01:12:41;;;;;;;0.80;0.60;;;12.20;99.90;;;;;;5008154;28;20026;-79
2022/09/14 01:15:35;;;;;;;1.05;0.85;;;12.20;99.90;;;;;;5007409;28;20404;-79
2022/09/14 01:18:34;;;;;;;0.80;0.60;;;12.10;99.90;;;;;;5004733;28;20049;-79
2022/09/14 01:21:11;;;;;;;0.75;0.57;;;12.10;99.90;;;;;;5004701;28;20981;-79
2022/09/14 01:24:02;;;;;;;0.75;0.60;;;12.00;99.90;;;;;;4991034;28;20112;-79
2022/09/14 01:26:49;;;;;;;0.88;0.70;;;11.90;99.90;;;;;;5008272;28;20029;-79
2022/09/14 01:29:36;;;;;;;0.80;0.80;;;12.00;99.90;;;;;;5006664;28;20042;-79
2022/09/14 01:32:04;;;;;;;0.68;0.60;;;12.00;99.90;;;;;;5005605;28;20029;-79
2022/09/14 01:34:44;;;;;;;0.50;0.50;;;12.00;99.90;;;;;;5007866;28;20028;-78
2022/09/14 01:37:39;;;;;;;2.17;0.50;;;12.00;99.90;;;;;;5005155;28;20032;-79
2022/09/14 01:40:15;;;;;;;2.10;0.80;;;11.90;99.90;;;;;;5000801;28;20055;-78
2022/09/14 01:42:44;;;;;;;0.47;0.47;;;12.00;99.90;;;;;;5006389;28;20049;-78
2022/09/14 01:45:15;;;;;;;1.35;1.25;;;12.10;99.90;;;;;;5008773;28;20052;-78
2022/09/14 01:47:46;;;;;;;0.55;0.55;;;12.10;99.90;;;;;;5000722;28;20026;-78
2022/09/14 01:50:26;;;;;;;0.88;0.68;;;12.20;99.90;;;;;;5004754;28;20042;-78
2022/09/14 01:52:59;;;;;;;0.50;0.50;;;12.20;99.90;;;;;;5003554;28;20030;-79
2022/09/14 01:55:40;;;;;;;1.17;0.68;;;12.00;99.90;;;;;;5008136;28;20026;-78
2022/09/14 01:58:24;;;;;;;2.10;1.00;;;11.90;99.90;;;;;;5004886;28;20032;-79
2022/09/14 02:00:52;;;;;;;0.82;0.63;;;11.90;99.90;;;;;;5008421;28;20408;-77
2022/09/14 02:03:22;;;;;;;0.73;0.55;;;11.90;99.90;;;;;;5007346;28;20026;-78
2022/09/14 02:06:05;;;;;;;0.65;0.60;;;12.00;99.90;;;;;;5006474;28;20061;-78
2022/09/14 02:08:32;;;;;;;2.00;0.73;;;12.00;99.90;;;;;;5005355;28;20032;-79
2022/09/14 02:10:58;;;;;;;1.02;0.80;;;12.00;99.90;;;;;;5003967;28;20414;-79
2022/09/14 02:13:25;;;;;;;0.65;0.55;;;12.10;99.90;;;;;;5003923;28;20034;-78
2022/09/14 02:15:50;;;;;;;0.65;0.65;;;12.20;99.90;;;;;;5005544;28;20038;-79
2022/09/14 02:18:16;;;;;;;0.85;0.73;;;12.00;99.90;;;;;;5005473;28;20061;-79
2022/09/14 02:20:51;;;;;;;5.47;1.00;;;12.00;99.90;;;;;;5000834;28;20089;-79
2022/09/14 02:23:17;;;;;;;0.98;0.75;;;12.00;99.90;;;;;;5004926;28;20049;-78
2022/09/14 02:25:45;;;;;;;1.38;0.80;;;12.10;99.90;;;;;;5002813;28;20033;-78
2022/09/14 02:28:10;;;;;;;2.42;1.00;;;12.10;99.90;;;;;;5002085;28;20096;-78
2022/09/14 02:31:05;;;;;;;1.02;0.90;;;12.10;99.90;;;;;;5004617;28;20689;-79
2022/09/14 02:33:42;;;;;;;0.75;0.75;;;12.10;99.90;;;;;;5007011;28;20033;-78
2022/09/14 02:36:25;;;;;;;2.28;1.00;;;12.10;99.90;;;;;;5000756;28;20214;-79
2022/09/14 02:39:01;;;;;;;1.02;0.80;;;12.20;99.90;;;;;;5001261;28;20034;-78
2022/09/14 02:41:57;;;;;;;0.70;0.70;;;12.20;99.90;;;;;;5001109;28;20513;-78
2022/09/14 02:45:02;;;;;;;1.75;1.00;;;12.20;99.90;;;;;;4948950;28;20049;-78
2022/09/14 02:47:39;;;;;;;2.58;0.82;;;12.20;99.90;;;;;;4955405;28;20041;-78
2022/09/14 02:50:50;;;;;;;1.20;0.60;;;12.10;99.90;;;;;;5005852;28;20038;-78
2022/09/14 02:53:27;;;;;;;2.58;0.80;;;12.00;99.90;;;;;;5005195;28;20038;-79
2022/09/14 02:56:03;;;;;;;1.98;1.20;;;12.00;99.90;;;;;;5005551;28;20770;-79
2022/09/14 02:58:40;;;;;;;2.00;0.90;;;12.10;99.90;;;;;;5001520;28;20033;-79
2022/09/14 03:01:07;;;;;;;2.78;0.88;;;12.00;99.90;;;;;;5001185;28;20058;-78
2022/09/14 03:03:33;;;;;;;0.60;0.60;;;11.90;99.90;;;;;;4997801;28;20085;-76
2022/09/14 03:05:58;;;;;;;1.85;0.80;;;11.90;99.90;;;;;;5002753;28;20033;-80
2022/09/14 03:08:25;;;;;;;1.20;1.00;;;12.00;99.90;;;;;;5000149;28;20493;-79
2022/09/14 03:10:51;;;;;;;1.23;1.05;;;11.90;99.90;;;;;;4997134;28;20029;-80
2022/09/14 03:13:17;;;;;;;1.65;0.60;;;11.80;99.90;;;;;;5000561;28;20037;-80
2022/09/14 03:15:43;;;;;;;0.82;0.70;;;11.80;99.90;;;;;;5005704;28;20482;-78
2022/09/14 03:18:08;;;;;;;2.05;0.80;;;11.80;99.90;;;;;;5004948;28;20053;-81
2022/09/14 03:20:34;;;;;;;0.68;0.68;;;11.80;99.90;;;;;;4996317;28;20691;-78
2022/09/14 03:23:00;;;;;;;3.25;0.80;;;11.70;99.90;;;;;;4989506;28;20125;-86
2022/09/14 03:25:27;;;;;;;1.60;1.33;;;11.80;99.90;;;;;;4992736;28;20503;-75
2022/09/14 03:27:55;;;;;;;0.68;0.60;;;11.90;99.90;;;;;;5001267;28;20026;-76
2022/09/14 03:30:21;;;;;;;0.60;0.60;;;11.90;99.90;;;;;;4997659;28;20038;-78
2022/09/14 03:32:47;;;;;;;4.88;0.90;;;12.00;99.90;;;;;;4992983;28;20462;-77
2022/09/14 03:35:13;;;;;;;0.70;0.70;;;11.90;99.90;;;;;;4996077;28;20037;-80
2022/09/14 03:37:40;;;;;;;0.82;0.82;;;11.90;99.90;;;;;;4995632;28;20046;-83
2022/09/14 03:40:07;;;;;;;0.60;0.60;;;11.90;99.90;;;;;;4993930;28;20046;-81
2022/09/14 03:42:44;;;;;;;1.27;0.75;;;11.80;99.90;;;;;;4999753;28;20519;-81
2022/09/14 03:45:11;;;;;;;1.20;0.60;;;11.80;99.90;;;;;;4991799;28;20026;-82
2022/09/14 03:47:40;;;;;;;0.95;0.93;;;11.80;99.90;;;;;;5001450;28;20022;-82
2022/09/14 03:50:07;;;;;;;1.00;0.90;;;11.80;99.90;;;;;;5000873;28;20385;-80
2022/09/14 03:52:34;;;;;;;0.60;0.60;;;11.70;99.90;;;;;;5003127;28;20118;-82
2022/09/14 03:55:00;;;;;;;0.60;0.47;;;11.70;99.90;;;;;;5004442;28;20034;-80
2022/09/14 03:57:26;;;;;;;0.80;0.80;;;11.80;99.90;;;;;;5001939;28;20056;-82
2022/09/14 03:59:51;;;;;;;1.17;0.77;;;11.80;99.90;;;;;;5002036;28;20030;-82
2022/09/14 04:02:17;;;;;;;3.17;0.77;;;11.80;99.90;;;;;;5001997;28;20037;-82
2022/09/14 04:04:42;;;;;;;0.55;0.55;;;11.80;99.90;;;;;;5003724;28;20030;-80
2022/09/14 04:07:07;;;;;;;0.85;0.77;;;11.80;99.90;;;;;;5000306;28;20018;-81
2022/09/14 04:09:33;;;;;;;1.55;0.70;;;11.70;99.90;;;;;;5000743;28;20686;-79
2022/09/14 04:11:59;;;;;;;0.80;0.80;;;11.80;99.90;;;;;;5002303;28;20057;-81
2022/09/14 04:14:25;;;;;;;1.23;1.20;;;12.00;99.90;;;;;;5000647;28;20049;-81
2022/09/14 04:16:50;;;;;;;0.50;0.50;;;12.10;99.90;;;;;;5001388;28;20030;-81
2022/09/14 04:19:17;;;;;;;3.20;1.00;;;12.20;99.90;;;;;;5029758;28;20046;-81
2022/09/14 04:21:42;;;;;;;1.42;0.75;;;12.20;99.90;;;;;;5035451;28;20494;-82
2022/09/14 04:24:11;;;;;;;2.58;1.50;;;12.30;99.90;;;;;;5037147;28;20068;-81
2022/09/14 04:26:37;;;;;;;4.22;0.80;;;12.30;99.90;;;;;;5017010;28;20033;-79
2022/09/14 04:29:03;;;;;;;0.90;0.80;;;12.30;99.90;;;;;;5033572;28;20048;-81
2022/09/14 04:31:29;;;;;;;1.52;0.68;;;12.40;99.90;;;;;;5034664;28;20484;-81
2022/09/14 04:33:55;;;;;;;1.10;1.00;;;12.40;99.90;;;;;;5028350;28;20052;-81
2022/09/14 04:36:22;;;;;;;4.05;1.42;;;12.50;99.90;;;;;;5035751;28;20025;-81
2022/09/14 04:38:52;;;;;;;0.70;0.70;;;12.40;99.90;;;;;;5034032;28;20052;-81
2022/09/14 04:41:22;;;;;;;1.45;1.10;;;12.40;99.90;;;;;;5024597;28;20033;-81
2022/09/14 04:43:49;;;;;;;1.02;0.93;;;12.40;99.90;;;;;;5019158;28;20116;-75
2022/09/14 04:46:20;;;;;;;1.45;1.02;;;12.30;99.90;;;;;;5026152;28;20021;-76
2022/09/14 04:48:45;;;;;;;1.47;0.70;;;12.20;99.90;;;;;;5020801;28;20033;-74
2022/09/14 04:51:16;;;;;;;0.82;0.70;;;12.30;99.90;;;;;;5027913;28;20295;-75
2022/09/14 04:53:42;;;;;;;2.33;0.90;;;12.40;99.90;;;;;;5015363;28;20025;-75
2022/09/14 04:56:09;;;;;;;3.55;1.05;;;12.40;99.90;;;;;;5023716;28;20117;-75
2022/09/14 04:58:38;;;;;;;1.20;1.00;;;12.40;99.90;;;;;;5026805;28;20506;-76
2022/09/14 05:01:09;;;;;;;2.70;1.17;;;12.50;99.90;;;;;;5014110;28;20374;-77
2022/09/14 05:03:37;;;;;;;1.42;1.10;;;12.60;99.90;;;;;;5014271;28;20080;-77
2022/09/14 05:06:04;;;;;;;1.75;1.08;;;12.60;99.90;;;;;;5021192;28;20116;-85
2022/09/14 05:08:30;;;;;;;3.90;1.42;;;12.60;99.90;;;;;;5014583;28;20425;-79
2022/09/14 05:10:59;;;;;;;1.10;1.00;;;12.60;99.90;;;;;;5013316;28;20036;-84
2022/09/14 05:13:25;;;;;;;2.75;1.10;;;12.50;99.90;;;;;;5010344;28;20053;-80
2022/09/14 05:15:50;;;;;;;3.35;0.80;;;12.60;99.90;;;;;;5022304;28;20476;-80
2022/09/14 05:18:17;;;;;;;1.00;0.90;;;12.60;99.90;;;;;;5012937;28;20631;-80
2022/09/14 05:20:42;;;;;;;3.42;1.15;;;12.50;99.90;;;;;;4995028;28;20030;-80
2022/09/14 05:23:08;;;;;;;1.13;0.90;;;12.50;99.90;;;;;;5009950;28;20028;-80
2022/09/14 05:25:33;;;;;;;2.15;0.90;;;12.60;99.90;;;;;;4995788;28;20425;-80
2022/09/14 05:27:59;;;;;;;1.40;0.80;;;12.70;99.90;;;;;;4995127;28;20125;-80
2022/09/14 05:30:24;;;;;;;1.40;1.00;;;12.60;99.90;;;;;;4994707;28;20374;-80
2022/09/14 05:32:50;;;;;;;2.17;1.15;;;12.70;99.90;;;;;;5009485;28;20029;-81
2022/09/14 05:35:15;;;;;;;2.03;1.40;;;12.70;99.90;;;;;;4998778;28;20076;-80
2022/09/14 05:37:41;;;;;;;3.40;1.45;;;12.80;99.90;;;;;;5006846;28;20030;-80
2022/09/14 05:40:07;;;;;;;3.35;1.77;;;12.80;99.90;;;;;;5009273;28;20037;-80
2022/09/14 05:42:33;;;;;;;2.03;1.50;;;12.90;99.90;;;;;;5001200;28;20022;-80
2022/09/14 05:44:59;;;;;;;1.23;1.00;;;12.90;99.90;;;;;;4998103;28;20022;-80
2022/09/14 05:47:27;;;;;;;2.67;1.35;;;12.90;99.90;;;;;;5006268;28;20049;-80
2022/09/14 05:49:52;;;;;;;2.25;0.98;;;12.90;99.90;;;;;;5006491;28;20038;-80
2022/09/14 05:52:18;;;;;;;1.45;1.02;;;13.00;99.90;;;;;;4999553;28;20030;-81
2022/09/14 05:54:44;;;;;;;1.05;0.90;;;13.00;99.90;;;;;;5003821;28;20037;-80
2022/09/14 05:57:09;;;;;;;11.45;2.03;;;13.10;99.90;;;;;;5002139;28;20027;-80
2022/09/14 05:59:35;;;;;;;1.58;1.08;;;13.10;99.90;;;;;;5002900;28;20028;-80
2022/09/14 06:02:00;;;;;;;0.88;0.80;;;13.20;99.90;;;;;;5008813;28;20076;-80
2022/09/14 06:04:26;;;;;;;1.20;1.10;;;13.20;99.90;;;;;;5006777;28;20502;-80
2022/09/14 06:06:51;;;;;;;1.42;1.15;;;13.10;99.90;;;;;;5006298;28;20037;-80
2022/09/14 06:09:17;;;;;;;1.38;1.05;;;13.00;99.90;;;;;;5007693;28;20025;-80
2022/09/14 06:11:42;;;;;;;2.72;1.05;;;13.00;99.90;;;;;;5001252;28;20030;-80
2022/09/14 06:14:08;;;;;;;1.20;0.90;;;13.10;99.90;;;;;;4994925;28;20424;-80
2022/09/14 06:16:34;;;;;;;2.25;1.20;;;13.20;99.90;;;;;;5007502;28;20026;-81
2022/09/14 06:18:59;;;;;;;3.90;2.38;;;13.20;99.90;;;;;;5003005;28;20129;-85
2022/09/14 06:21:30;;;;;;;2.97;1.02;;;13.40;99.90;;;;;;5007806;28;20088;-85
2022/09/14 06:23:56;;;;;;;2.50;0.98;;;13.40;99.90;;;;;;5007553;28;20053;-86
2022/09/14 06:26:22;;;;;;;1.33;0.88;;;13.50;99.90;;;;;;5006835;28;20029;-87
2022/09/14 06:28:48;;;;;;;1.73;1.63;;;13.60;99.90;;;;;;5003603;28;20116;-86
2022/09/14 06:31:16;;;;;;;1.70;1.15;;;13.60;99.90;;;;;;5007961;28;20743;-86
2022/09/14 06:33:46;;;;;;;2.05;1.38;;;13.60;99.90;;;;;;5007754;28;20057;-86
2022/09/14 06:36:15;;;;;;;2.13;1.10;;;13.70;99.90;;;;;;5000177;28;20429;-86
2022/09/14 06:38:44;;;;;;;1.23;0.93;;;13.70;99.90;;;;;;5002043;28;20034;-86
2022/09/14 06:41:13;;;;;;;3.40;1.33;;;13.80;99.90;;;;;;4997367;28;20105;-86
2022/09/14 06:43:40;;;;;;;1.13;1.02;;;13.80;99.90;;;;;;4999471;28;20500;-84
2022/09/14 06:46:10;;;;;;;1.52;0.93;;;13.90;99.90;;;;;;4998046;28;20064;-79
2022/09/14 06:48:39;;;;;;;0.93;0.75;;;14.00;99.90;;;;;;5005598;28;20083;-80
2022/09/14 06:51:19;;;;;;;1.52;0.75;;;14.10;99.90;;;;;;5003811;28;20030;-82
2022/09/14 06:53:46;;;;;;;1.00;0.90;;;14.20;99.90;;;;;;5000109;28;20030;-81
2022/09/14 06:56:12;;;;;;;0.65;0.65;;;14.30;99.90;;;;;;5007557;28;20033;-81
2022/09/14 06:58:37;;;;;;;3.97;0.90;;;14.50;99.90;;;;;;4995657;28;20044;-84
2022/09/14 07:01:05;;;;;;;1.10;0.93;;;14.60;99.90;;;;;;4995609;28;20034;-80
2022/09/14 07:03:31;;;;;;;1.35;0.82;;;14.80;99.90;;;;;;4999692;28;20439;-80
2022/09/14 07:06:01;;;;;;;1.38;0.90;;;14.80;99.90;;;;;;5007201;28;20112;-79
2022/09/14 07:08:27;;;;;;;0.73;0.73;;;14.80;99.90;;;;;;5007419;28;20076;-81
2022/09/14 07:10:57;;;;;;;1.20;1.00;;;14.70;99.90;;;;;;4999735;28;20130;-81
2022/09/14 07:13:23;;;;;;;1.25;0.70;;;14.60;99.90;;;;;;5006237;28;20061;-83
2022/09/14 07:15:49;;;;;;;3.60;1.20;;;14.50;99.90;;;;;;5003188;28;20034;-79
2022/09/14 07:18:15;;;;;;;1.00;0.90;;;14.40;99.90;;;;;;5006249;28;20049;-79
2022/09/14 07:20:40;;;;;;;0.80;0.68;;;14.40;99.90;;;;;;4993648;28;20389;-80
2022/09/14 07:23:06;;;;;;;0.93;0.93;;;14.50;99.90;;;;;;5002799;28;20045;-83
2022/09/14 07:25:31;;;;;;;1.42;0.70;;;14.70;99.90;;;;;;5002607;28;20030;-83
2022/09/14 07:27:56;;;;;;;2.45;1.00;;;14.90;99.90;;;;;;5003526;28;20958;-83
2022/09/14 07:30:23;;;;;;;1.40;0.70;;;15.00;99.90;;;;;;5007725;28;20026;-82
2022/09/14 07:32:49;;;;;;;0.93;0.60;;;15.20;99.90;;;;;;5006100;28;20034;-81
2022/09/14 07:35:14;;;;;;;1.25;0.90;;;15.10;99.90;;;;;;5003448;28;20167;-81
2022/09/14 07:37:40;;;;;;;2.38;0.70;;;15.20;99.90;;;;;;5001022;28;20107;-79
2022/09/14 07:40:06;;;;;;;0.60;0.60;;;15.20;99.90;;;;;;5003483;28;20032;-82
2022/09/14 07:42:32;;;;;;;0.70;0.65;;;15.50;99.90;;;;;;5001088;28;20026;-82
2022/09/14 07:44:57;;;;;;;0.82;0.70;;;15.70;99.90;;;;;;4992277;28;20030;-83
2022/09/14 07:47:23;;;;;;;1.02;0.60;;;15.90;99.90;;;;;;5007773;28;20499;-83
2022/09/14 07:49:48;;;;;;;1.05;0.60;;;16.10;99.90;;;;;;5005061;28;20022;-83
2022/09/14 07:52:15;;;;;;;3.70;0.70;;;16.20;99.90;;;;;;5007869;28;20766;-83
2022/09/14 07:54:40;;;;;;;0.70;0.70;;;16.30;99.90;;;;;;5010239;28;20038;-82
2022/09/14 07:57:06;;;;;;;1.15;0.60;;;16.40;99.90;;;;;;5004500;28;20148;-83
2022/09/14 07:59:31;;;;;;;3.10;0.63;;;16.50;99.90;;;;;;5009981;28;20028;-82
2022/09/14 08:01:57;;;;;;;3.55;0.75;;;16.70;99.90;;;;;;5008250;28;20030;-82
2022/09/14 08:04:22;;;;;;;2.33;0.50;;;16.80;99.90;;;;;;5010018;28;20033;-82
2022/09/14 08:06:48;;;;;;;2.33;0.82;;;16.90;99.90;;;;;;5011964;28;20469;-83
2022/09/14 08:09:13;;;;;;;2.13;0.90;;;17.10;99.90;;;;;;5008669;28;20029;-82
2022/09/14 08:11:39;;;;;;;0.77;0.75;;;17.20;99.90;;;;;;5007660;28;20033;-82
2022/09/14 08:14:10;;;;;;;1.00;0.63;;;17.30;99.90;;;;;;5005387;28;20365;-83
2022/09/14 08:16:37;;;;;;;2.70;1.25;;;16.90;99.90;;;;;;5009072;28;20055;-80
2022/09/14 08:19:05;;;;;;;0.57;0.57;;;17.10;99.90;;;;;;5008660;28;20050;-79
2022/09/14 08:21:31;;;;;;;1.60;0.80;;;17.10;99.90;;;;;;5011172;28;20056;-85
2022/09/14 08:23:58;;;;;;;4.47;0.85;;;16.90;99.90;;;;;;5010350;28;20025;-86
2022/09/14 08:26:26;;;;;;;2.58;0.90;;;17.00;99.90;;;;;;4998952;28;20056;-84
2022/09/14 08:28:53;;;;;;;2.60;0.65;;;17.40;99.90;;;;;;5010443;28;20076;-84
2022/09/14 08:31:21;;;;;;;3.03;1.17;;;17.70;99.90;;;;;;5005871;28;20467;-84
2022/09/14 08:33:53;;;;;;;1.67;0.60;;;17.90;99.90;;;;;;5008833;28;20053;-85
2022/09/14 08:36:20;;;;;;;3.83;0.80;;;18.20;99.90;;;;;;5009204;28;20507;-85
2022/09/14 08:38:45;;;;;;;0.60;0.60;;;18.10;99.90;;;;;;5010899;28;20428;-84
2022/09/14 08:41:30;;;;;;;2.53;0.82;;;18.10;99.90;;;;;;4997829;28;20053;-84
2022/09/14 08:44:24;;;;;;;3.15;1.13;;;18.10;99.90;;;;;;5009868;28;20459;-85
2022/09/14 08:46:58;;;;;;;1.15;0.65;;;18.20;99.90;;;;;;5003878;28;20027;-83
2022/09/14 08:50:04;;;;;;;2.35;0.90;;;18.40;99.90;;;;;;5002053;28;20036;-84
2022/09/14 08:52:37;;;;;;;0.52;0.50;;;18.20;99.90;;;;;;4996425;28;20031;-84
2022/09/14 08:55:36;;;;;;;1.15;0.77;;;18.20;99.90;;;;;;5006722;28;20033;-83
2022/09/14 08:58:19;;;;;;;0.55;0.40;;;18.30;99.90;;;;;;5004093;28;20077;-82
2022/09/14 09:00:55;;;;;;;4.72;0.75;;;18.40;99.60;;;;;;5005013;28;20084;-81
2022/09/14 09:03:51;;;;;;;0.75;0.75;;;18.20;99.60;;;;;;4998626;28;20026;-80
2022/09/14 09:06:36;;;;;;;2.28;0.60;;;18.20;99.10;;;;;;5006567;28;20026;-81
2022/09/14 09:09:13;;;;;;;1.15;0.85;;;18.20;99.90;;;;;;5007571;28;20022;-81
2022/09/14 09:11:45;;;;;;;2.30;0.50;;;18.30;99.90;;;;;;5008029;28;20112;-80
2022/09/14 09:14:37;;;;;;;1.15;0.60;;;18.50;99.90;;;;;;5004643;28;20465;-80
2022/09/14 09:17:14;;;;;;;2.08;0.80;;;18.20;99.40;;;;;;5003633;28;20476;-80
2022/09/14 09:20:14;;;;;;;1.88;0.68;;;18.40;98.50;;;;;;5006060;28;20133;-80
2022/09/14 09:22:44;;;;;;;3.70;0.55;;;18.60;97.50;;;;;;4989676;28;20081;-81
2022/09/14 09:25:18;;;;;;;0.68;0.60;;;18.70;94.70;;;;;;5009304;28;20038;-79
2022/09/14 09:27:46;;;;;;;2.35;0.88;;;18.50;96.20;;;;;;5002395;28;20030;-80
2022/09/14 09:30:13;;;;;;;1.80;0.50;;;18.60;94.70;;;;;;5001454;28;20473;-80
2022/09/14 09:32:39;;;;;;;0.60;0.57;;;18.80;94.70;;;;;;5005893;28;20069;-78
2022/09/14 09:35:05;;;;;;;0.90;0.60;;;18.70;97.00;;;;;;5003363;28;20163;-77
2022/09/14 09:37:36;;;;;;;0.85;0.50;;;19.10;93.70;;;;;;5003998;28;20121;-80
2022/09/14 09:40:05;;;;;;;;;;;19.20;92.50;;;;;;5004167;28;20089;-78
2022/09/14 09:42:30;;;;;;;3.33;0.75;;;19.50;91.90;;;;;;4998800;28;20464;-80
2022/09/14 09:45:03;;;;;;;1.30;1.08;;;19.50;91.90;;;;;;4998041;28;20030;-83
2022/09/14 09:47:39;;;;;;;1.48;0.60;;;19.60;90.70;;;;;;5007227;28;20389;-80
2022/09/14 09:50:26;;;;;;;5.72;0.57;;;19.70;91.90;;;;;;5007044;28;20114;-83
2022/09/14 09:52:54;;;;;;;0.40;0.40;;;19.80;90.90;;;;;;5005419;28;20029;-77
2022/09/14 09:55:25;;;;;;;0.60;0.60;;;19.60;91.30;;;;;;5003182;28;20030;-76
2022/09/14 09:57:52;;;;;;;1.03;0.73;;;20.10;89.40;;;;;;5005996;28;20057;-76
2022/09/14 10:00:22;;;;;;;0.40;0.40;;;20.20;85.30;;;;;;5002901;28;20304;-75
2022/09/14 10:02:48;;;;;;;0.73;0.65;;;20.00;85.30;;;;;;5008281;28;20029;-78
2022/09/14 10:05:16;;;;;;;1.98;0.90;;;20.00;84.30;;;;;;5001554;28;20746;-79
2022/09/14 10:07:53;;;;;;;2.28;0.90;;;20.60;83.20;;;;;;5003641;28;20022;-79
2022/09/14 10:10:25;;;;;;;4.10;0.82;;;20.80;80.00;;;;;;4990156;28;20094;-79
2022/09/14 10:12:55;;;;;;;1.38;0.60;;;19.90;82.50;;;;;;5007439;28;20183;-79
2022/09/14 10:15:25;;;;;;;1.98;0.77;;;20.40;85.10;;;;;;5004065;28;20064;-79
2022/09/14 10:18:07;;;;;;;3.33;1.55;;;21.00;79.60;;;;;;5009043;28;20065;-79
2022/09/14 10:20:35;;;;;;;4.90;0.98;;;21.50;78.10;;;;;;5007965;28;20034;-80
2022/09/14 10:23:19;;;;;;;0.80;0.75;;;23.40;71.40;;;;;;5005323;28;20038;-79
2022/09/14 10:26:10;;;;;;;1.48;0.60;;;24.10;66.40;;;;;;5006012;28;20045;-77
2022/09/14 10:28:36;;;;;;;2.13;1.10;;;22.30;70.30;;;;;;4987868;28;20037;-77
2022/09/14 10:31:14;;;;;;;3.28;0.70;;;21.40;74.80;;;;;;5003293;28;20503;-76
2022/09/14 10:33:41;;;;;;;1.10;0.63;;;20.60;75.50;;;;;;4998379;28;20056;-78
2022/09/14 10:36:30;;;;;;;1.08;0.70;;;20.10;79.90;;;;;;5000431;28;20036;-77
2022/09/14 10:39:26;;;;;;;3.22;0.50;;;19.90;78.90;;;;;;5001616;28;20036;-73
2022/09/14 10:42:32;;;;;;;0.65;0.45;;;20.50;78.20;;;;;;5002813;28;20025;-77
2022/09/14 10:45:17;;;;;;;1.95;1.02;;;20.70;75.10;;;;;;5001048;28;20034;-78
2022/09/14 10:48:05;;;;;;;2.08;0.52;;;21.20;75.10;;;;;;5004665;28;20034;-80
2022/09/14 10:50:40;;;;;;;1.33;0.73;;;21.60;73.10;;;;;;4988380;28;20069;-78
2022/09/14 10:53:16;;;;;;;1.20;0.60;;;21.20;73.10;;;;;;4999582;28;20026;-78
2022/09/14 10:56:02;;;;;;;1.15;1.05;;;22.70;67.70;;;;;;5005733;28;20053;-81
2022/09/14 10:58:56;;;;;;;2.20;0.70;;;21.50;68.10;;;;;;5003138;28;20117;-80
2022/09/14 11:01:43;;;;;;;0.50;0.50;;;20.60;74.60;;;;;;4996913;28;20028;-74
2022/09/14 11:04:20;;;;;;;3.00;0.68;;;20.20;74.60;;;;;;4999370;28;20169;-75
2022/09/14 11:07:00;;;;;;;0.85;0.85;;;19.90;76.20;;;;;;5005204;28;20029;-75
2022/09/14 11:09:39;;;;;;;0.50;0.50;;;20.00;76.10;;;;;;5005755;28;20489;-75
2022/09/14 11:12:33;;;;;;;3.90;0.85;;;20.40;75.10;;;;;;5000835;28;20033;-74
2022/09/14 11:15:28;;;;;;;3.50;0.65;;;20.60;72.40;;;;;;5001232;28;20029;-74
2022/09/14 11:18:06;;;;;;;3.40;0.70;;;21.30;70.60;;;;;;4999356;28;20077;-75
2022/09/14 11:20:51;;;;;;;0.82;0.82;;;22.00;68.40;;;;;;4996631;28;20034;-75
2022/09/14 11:23:34;;;;;;;2.47;0.70;;;22.90;67.90;;;;;;5000164;28;20040;-72
2022/09/14 11:26:07;;;;;;;1.30;0.57;;;22.30;67.30;;;;;;5000544;28;20026;-76
2022/09/14 11:28:45;;;;;;;1.60;0.90;;;23.60;66.70;;;;;;5005521;28;20646;-75
2022/09/14 11:31:30;;;;;;;1.33;0.88;;;22.80;66.20;;;;;;4991420;28;20046;-74
2022/09/14 11:34:23;;;;;;;0.77;0.60;;;23.10;66.60;;;;;;4994233;28;20060;-74
2022/09/14 11:36:54;;;;;;;0.68;0.60;;;25.70;60.60;;;;;;5000667;28;20706;-74
2022/09/14 11:39:27;;;;;;;0.63;0.60;;;27.70;53.90;;;;;;5003180;28;20029;-74
2022/09/14 11:42:01;;;;;;;1.50;0.90;;;27.90;53.60;;;;;;4999809;28;20030;-75
2022/09/14 11:44:39;;;;;;;2.33;0.70;;;28.20;50.90;;;;;;4997380;28;20034;-75
2022/09/14 11:47:16;;;;;;;5.00;0.73;;;30.00;48.10;;;;;;5000978;28;20022;-74
2022/09/14 11:49:59;;;;;;;3.20;1.27;;;29.00;47.30;;;;;;4992931;28;20026;-75
2022/09/14 11:52:28;;;;;;;1.17;0.52;;;26.10;51.80;;;;;;4995082;28;20057;-73
2022/09/14 11:54:55;;;;;;;0.50;0.50;;;26.10;54.40;;;;;;5006450;28;20041;-75
2022/09/14 11:57:29;;;;;;;1.77;0.85;;;25.10;53.80;;;;;;4998798;28;20056;-72
2022/09/14 12:00:00;;;;;;;0.93;0.88;;;23.50;58.40;;;;;;5004272;28;20033;-76
2022/09/14 12:02:26;;;;;;;0.97;0.47;;;23.20;60.10;;;;;;5001670;28;20037;-72
2022/09/14 12:05:03;;;;;;;0.90;0.77;;;22.80;61.70;;;;;;4999797;28;20022;-76
2022/09/14 12:07:38;;;;;;;1.50;0.50;;;22.50;62.50;;;;;;4991528;28;20064;-76
2022/09/14 12:10:13;;;;;;;2.13;0.82;;;23.80;61.20;;;;;;5000497;28;20120;-75
2022/09/14 12:12:42;;;;;;;1.98;0.77;;;24.10;57.80;;;;;;5005835;28;20087;-74
2022/09/14 12:15:23;;;;;;;0.80;0.60;;;24.70;56.50;;;;;;4997913;28;20033;-73
2022/09/14 12:17:51;;;;;;;0.73;0.60;;;23.80;58.80;;;;;;5004038;28;20103;-73
2022/09/14 12:20:37;;;;;;;3.17;0.90;;;22.40;61.70;;;;;;4995927;28;20074;-74
2022/09/14 12:23:16;;;;;;;0.85;0.82;;;22.00;65.20;;;;;;4952550;28;20030;-77
2022/09/14 12:26:10;;;;;;;0.65;0.40;;;21.80;67.10;;;;;;5005399;28;20026;-79
2022/09/14 12:28:38;;;;;;;1.92;0.90;;;21.80;66.50;;;;;;5003152;28;20036;-79
2022/09/14 12:31:06;;;;;;;1.02;0.80;;;21.10;69.00;;;;;;4994581;28;20025;-79
2022/09/14 12:33:32;;;;;;;3.08;0.82;;;20.70;70.40;;;;;;4974379;28;20113;-78
2022/09/14 12:36:01;;;;;;;1.35;0.82;;;20.40;70.10;;;;;;5000071;28;20585;-80
2022/09/14 12:38:30;;;;;;;4.65;1.30;;;20.40;71.30;;;;;;5004087;28;20037;-76
2022/09/14 12:41:23;;;;;;;1.80;0.63;;;20.20;73.00;;;;;;5005441;28;20056;-80
2022/09/14 12:43:48;;;;;;;2.10;0.63;;;20.20;73.80;;;;;;5002831;28;20025;-79
2022/09/14 12:46:19;;;;;;;0.40;0.40;;;20.40;74.60;;;;;;4998018;28;20056;-78
2022/09/14 12:48:48;;;;;;;1.95;1.08;;;20.20;73.20;;;;;;4999403;28;20029;-77
2022/09/14 12:51:28;;;;;;;1.10;0.70;;;20.10;73.50;;;;;;5009083;28;20034;-78
2022/09/14 12:54:08;;;;;;;0.75;0.50;;;20.20;73.60;;;;;;5004572;28;20556;-78
2022/09/14 12:56:42;;;;;;;1.58;0.90;;;20.70;71.30;;;;;;4996879;28;20076;-78
2022/09/14 12:59:37;;;;;;;2.15;0.50;;;21.40;70.10;;;;;;5002770;28;20083;-76
2022/09/14 13:02:46;;;;;;;3.67;0.80;;;21.70;68.60;;;;;;5005202;28;20072;-81
2022/09/14 13:05:17;;;;;;;1.52;0.65;;;22.10;68.00;;;;;;4964245;28;20038;-79
2022/09/14 13:07:44;;;;;;;1.45;0.52;;;22.90;66.30;;;;;;5000430;28;20030;-86
2022/09/14 13:10:23;;;;;;;1.23;0.93;;;24.10;61.60;;;;;;5002371;28;20036;-87
2022/09/14 13:12:50;;;;;;;2.78;0.70;;;25.30;58.90;;;;;;5004282;28;20444;-86